sensor_id;sensor_type;location;lat;lon;timestamp;temperature;humidity
29731;DHT22;16639;51.488;0.152;2022-08-23T00:02:24;19.50;99.90
29731;DHT22;16639;51.488;0.152;2022-08-23T00:04:53;19.50;99.90
29731;DHT22;16639;51.488;0.152;2022-08-23T00:07:39;19.50;99.90
29731;DHT22;16639;51.488;0.152;2022-08-23T00:10:08;19.40;99.90
29731;DHT22;16639;51.488;0.152;2022-08-23T00:12:36;19.40;99.90
29731;DHT22;16639;51.488;0.152;2022-08-23T00:15:09;19.40;99.90
29731;DHT22;16639;51.488;0.152;2022-08-23T00:17:37;19.40;99.90
29731;DHT22;16639;51.488;0.152;2022-08-23T00:20:06;19.50;99.90
29731;DHT22;16639;51.488;0.152;2022-08-23T00:22:34;19.30;99.90
29731;DHT22;16639;51.488;0.152;2022-08-23T00:25:03;19.30;99.90
29731;DHT22;16639;51.488;0.152;2022-08-23T00:27:30;20.10;99.90
29731;DHT22;16639;51.488;0.152;2022-08-23T00:29:57;19.40;99.90
29731;DHT22;16639;51.488;0.152;2022-08-23T00:32:26;19.30;99.90
29731;DHT22;16639;51.488;0.152;2022-08-23T00:34:54;19.30;99.90
29731;DHT22;16639;51.488;0.152;2022-08-23T00:37:23;19.30;99.90
29731;DHT22;16639;51.488;0.152;2022-08-23T00:39:50;19.30;99.90
29731;DHT22;16639;51.488;0.152;2022-08-23T00:45:17;19.30;99.90
29731;DHT22;16639;51.488;0.152;2022-08-23T00:48:04;19.30;99.90
29731;DHT22;16639;51.488;0.152;2022-08-23T00:50:37;19.30;99.90
29731;DHT22;16639;51.488;0.152;2022-08-23T00:53:15;19.20;99.90
29731;DHT22;16639;51.488;0.152;2022-08-23T00:55:43;19.20;99.90
29731;DHT22;16639;51.488;0.152;2022-08-23T00:58:11;19.20;99.90
29731;DHT22;16639;51.488;0.152;2022-08-23T01:00:39;19.20;99.90
29731;DHT22;16639;51.488;0.152;2022-08-23T01:03:06;19.20;99.90
29731;DHT22;16639;51.488;0.152;2022-08-23T01:08:11;19.20;99.90
29731;DHT22;16639;51.488;0.152;2022-08-23T01:10:40;19.20;99.90
29731;DHT22;16639;51.488;0.152;2022-08-23T01:13:10;19.80;99.90
29731;DHT22;16639;51.488;0.152;2022-08-23T01:15:54;19.30;99.90
29731;DHT22;16639;51.488;0.152;2022-08-23T01:18:27;19.20;99.90
29731;DHT22;16639;51.488;0.152;2022-08-23T01:20:59;19.20;99.90
29731;DHT22;16639;51.488;0.152;2022-08-23T01:23:33;19.20;99.90
29731;DHT22;16639;51.488;0.152;2022-08-23T01:26:03;19.20;99.90
29731;DHT22;16639;51.488;0.152;2022-08-23T01:28:30;19.20;99.90
29731;DHT22;16639;51.488;0.152;2022-08-23T01:30:58;19.30;99.90
29731;DHT22;16639;51.488;0.152;2022-08-23T01:33:25;19.30;99.90
29731;DHT22;16639;51.488;0.152;2022-08-23T01:35:54;19.20;99.90
29731;DHT22;16639;51.488;0.152;2022-08-23T01:38:22;19.30;99.90
29731;DHT22;16639;51.488;0.152;2022-08-23T01:40:49;19.30;99.90
29731;DHT22;16639;51.488;0.152;2022-08-23T01:43:18;19.30;99.90
29731;DHT22;16639;51.488;0.152;2022-08-23T01:45:47;19.30;99.90
29731;DHT22;16639;51.488;0.152;2022-08-23T01:48:15;19.30;99.90
29731;DHT22;16639;51.488;0.152;2022-08-23T01:50:43;19.30;99.90
29731;DHT22;16639;51.488;0.152;2022-08-23T01:53:11;19.20;99.90
29731;DHT22;16639;51.488;0.152;2022-08-23T01:55:40;19.20;99.90
29731;DHT22;16639;51.488;0.152;2022-08-23T01:58:08;19.20;99.90
29731;DHT22;16639;51.488;0.152;2022-08-23T02:00:37;19.20;99.90
29731;DHT22;16639;51.488;0.152;2022-08-23T02:03:04;19.20;99.90
29731;DHT22;16639;51.488;0.152;2022-08-23T02:05:32;18.70;99.90
29731;DHT22;16639;51.488;0.152;2022-08-23T02:08:00;19.20;99.90
29731;DHT22;16639;51.488;0.152;2022-08-23T02:10:48;19.20;99.90
29731;DHT22;16639;51.488;0.152;2022-08-23T02:13:15;19.60;99.90
29731;DHT22;16639;51.488;0.152;2022-08-23T02:15:43;19.20;99.90
29731;DHT22;16639;51.488;0.152;2022-08-23T02:18:11;19.70;99.90
29731;DHT22;16639;51.488;0.152;2022-08-23T02:20:45;19.30;99.90
29731;DHT22;16639;51.488;0.152;2022-08-23T02:23:14;19.30;99.90
29731;DHT22;16639;51.488;0.152;2022-08-23T02:25:41;19.20;99.90
29731;DHT22;16639;51.488;0.152;2022-08-23T02:28:09;19.30;99.90
29731;DHT22;16639;51.488;0.152;2022-08-23T02:30:37;19.30;99.90
29731;DHT22;16639;51.488;0.152;2022-08-23T02:33:06;19.30;99.90
29731;DHT22;16639;51.488;0.152;2022-08-23T02:35:33;19.30;99.90
29731;DHT22;16639;51.488;0.152;2022-08-23T02:38:04;19.30;99.90
29731;DHT22;16639;51.488;0.152;2022-08-23T02:40:31;19.30;99.90
29731;DHT22;16639;51.488;0.152;2022-08-23T02:42:59;19.30;99.90
29731;DHT22;16639;51.488;0.152;2022-08-23T02:45:27;19.30;99.90
29731;DHT22;16639;51.488;0.152;2022-08-23T02:47:54;19.30;99.90
29731;DHT22;16639;51.488;0.152;2022-08-23T02:50:23;19.30;99.90
29731;DHT22;16639;51.488;0.152;2022-08-23T02:52:52;19.30;99.90
29731;DHT22;16639;51.488;0.152;2022-08-23T02:55:20;19.30;99.90
29731;DHT22;16639;51.488;0.152;2022-08-23T02:57:48;19.40;99.90
29731;DHT22;16639;51.488;0.152;2022-08-23T03:00:16;19.60;99.90
29731;DHT22;16639;51.488;0.152;2022-08-23T03:02:44;19.40;99.90
29731;DHT22;16639;51.488;0.152;2022-08-23T03:05:12;19.30;99.90
29731;DHT22;16639;51.488;0.152;2022-08-23T03:07:39;19.40;99.90
29731;DHT22;16639;51.488;0.152;2022-08-23T03:10:07;19.40;99.90
29731;DHT22;16639;51.488;0.152;2022-08-23T03:12:35;19.40;99.90
29731;DHT22;16639;51.488;0.152;2022-08-23T03:15:04;19.40;99.90
29731;DHT22;16639;51.488;0.152;2022-08-23T03:17:34;19.50;99.90
29731;DHT22;16639;51.488;0.152;2022-08-23T03:20:02;19.40;99.90
29731;DHT22;16639;51.488;0.152;2022-08-23T03:22:29;19.40;99.90
29731;DHT22;16639;51.488;0.152;2022-08-23T03:24:57;19.30;99.90
29731;DHT22;16639;51.488;0.152;2022-08-23T03:27:24;19.50;99.90
29731;DHT22;16639;51.488;0.152;2022-08-23T03:29:51;19.40;99.90
29731;DHT22;16639;51.488;0.152;2022-08-23T03:32:18;19.50;99.90
29731;DHT22;16639;51.488;0.152;2022-08-23T03:34:45;19.40;99.90
29731;DHT22;16639;51.488;0.152;2022-08-23T03:37:13;19.50;99.90
29731;DHT22;16639;51.488;0.152;2022-08-23T03:39:41;19.50;99.90
29731;DHT22;16639;51.488;0.152;2022-08-23T03:42:09;19.50;99.90
29731;DHT22;16639;51.488;0.152;2022-08-23T03:44:38;19.50;99.90
29731;DHT22;16639;51.488;0.152;2022-08-23T03:47:05;19.50;99.90
29731;DHT22;16639;51.488;0.152;2022-08-23T03:49:33;19.40;99.90
29731;DHT22;16639;51.488;0.152;2022-08-23T03:52:00;19.30;99.90
29731;DHT22;16639;51.488;0.152;2022-08-23T03:54:27;19.40;99.90
29731;DHT22;16639;51.488;0.152;2022-08-23T03:57:00;19.50;99.90
29731;DHT22;16639;51.488;0.152;2022-08-23T03:59:29;19.40;99.90
29731;DHT22;16639;51.488;0.152;2022-08-23T04:01:57;19.50;99.90
29731;DHT22;16639;51.488;0.152;2022-08-23T04:04:24;19.40;99.90
29731;DHT22;16639;51.488;0.152;2022-08-23T04:06:52;19.40;99.90
29731;DHT22;16639;51.488;0.152;2022-08-23T04:09:19;19.40;99.90
29731;DHT22;16639;51.488;0.152;2022-08-23T04:11:47;19.40;99.90
29731;DHT22;16639;51.488;0.152;2022-08-23T04:14:14;19.30;99.90
29731;DHT22;16639;51.488;0.152;2022-08-23T04:16:41;19.40;99.90
29731;DHT22;16639;51.488;0.152;2022-08-23T04:19:11;19.40;99.90
29731;DHT22;16639;51.488;0.152;2022-08-23T04:21:47;19.40;99.90
29731;DHT22;16639;51.488;0.152;2022-08-23T04:24:16;19.40;99.90
29731;DHT22;16639;51.488;0.152;2022-08-23T04:26:45;19.40;99.90
29731;DHT22;16639;51.488;0.152;2022-08-23T04:29:15;19.50;99.90
29731;DHT22;16639;51.488;0.152;2022-08-23T04:32:01;19.50;99.90
29731;DHT22;16639;51.488;0.152;2022-08-23T04:34:31;19.40;99.90
29731;DHT22;16639;51.488;0.152;2022-08-23T04:37:00;19.50;99.90
29731;DHT22;16639;51.488;0.152;2022-08-23T04:39:28;19.50;99.90
29731;DHT22;16639;51.488;0.152;2022-08-23T04:41:55;19.40;99.90
29731;DHT22;16639;51.488;0.152;2022-08-23T04:44:41;19.50;99.90
29731;DHT22;16639;51.488;0.152;2022-08-23T04:47:08;19.40;99.90
29731;DHT22;16639;51.488;0.152;2022-08-23T04:49:40;19.50;99.90
29731;DHT22;16639;51.488;0.152;2022-08-23T04:52:15;19.40;99.90
29731;DHT22;16639;51.488;0.152;2022-08-23T04:54:45;19.50;99.90
29731;DHT22;16639;51.488;0.152;2022-08-23T04:57:13;19.50;99.90
29731;DHT22;16639;51.488;0.152;2022-08-23T04:59:41;19.40;99.90
29731;DHT22;16639;51.488;0.152;2022-08-23T05:02:09;19.50;99.90
29731;DHT22;16639;51.488;0.152;2022-08-23T05:04:37;19.50;99.90
29731;DHT22;16639;51.488;0.152;2022-08-23T05:07:04;19.50;99.90
29731;DHT22;16639;51.488;0.152;2022-08-23T05:09:31;19.50;99.90
29731;DHT22;16639;51.488;0.152;2022-08-23T05:11:58;19.50;99.90
29731;DHT22;16639;51.488;0.152;2022-08-23T05:14:26;19.40;99.90
29731;DHT22;16639;51.488;0.152;2022-08-23T05:16:53;19.50;99.90
29731;DHT22;16639;51.488;0.152;2022-08-23T05:19:21;19.50;99.90
29731;DHT22;16639;51.488;0.152;2022-08-23T05:21:48;19.50;99.90
29731;DHT22;16639;51.488;0.152;2022-08-23T05:24:22;19.50;99.90
29731;DHT22;16639;51.488;0.152;2022-08-23T05:26:52;19.50;99.90
29731;DHT22;16639;51.488;0.152;2022-08-23T05:29:19;19.50;99.90
29731;DHT22;16639;51.488;0.152;2022-08-23T05:31:48;19.50;99.90
29731;DHT22;16639;51.488;0.152;2022-08-23T05:34:17;19.50;99.90
29731;DHT22;16639;51.488;0.152;2022-08-23T05:36:48;19.40;99.90
29731;DHT22;16639;51.488;0.152;2022-08-23T05:39:22;19.50;99.90
29731;DHT22;16639;51.488;0.152;2022-08-23T05:42:02;19.50;99.90
29731;DHT22;16639;51.488;0.152;2022-08-23T05:44:29;19.50;99.90
29731;DHT22;16639;51.488;0.152;2022-08-23T05:47:07;19.40;99.90
29731;DHT22;16639;51.488;0.152;2022-08-23T05:49:37;19.50;99.90
29731;DHT22;16639;51.488;0.152;2022-08-23T05:52:06;19.50;99.90
29731;DHT22;16639;51.488;0.152;2022-08-23T05:54:34;19.50;99.90
29731;DHT22;16639;51.488;0.152;2022-08-23T05:57:01;19.50;99.90
29731;DHT22;16639;51.488;0.152;2022-08-23T05:59:31;19.50;99.90
29731;DHT22;16639;51.488;0.152;2022-08-23T06:01:59;19.60;99.90
29731;DHT22;16639;51.488;0.152;2022-08-23T06:04:28;19.50;99.90
29731;DHT22;16639;51.488;0.152;2022-08-23T06:06:55;19.50;99.90
29731;DHT22;16639;51.488;0.152;2022-08-23T06:09:24;19.60;99.90
29731;DHT22;16639;51.488;0.152;2022-08-23T06:11:52;19.60;99.90
29731;DHT22;16639;51.488;0.152;2022-08-23T06:14:19;19.60;99.90
29731;DHT22;16639;51.488;0.152;2022-08-23T06:16:48;19.60;99.90
29731;DHT22;16639;51.488;0.152;2022-08-23T06:19:22;19.60;99.90
29731;DHT22;16639;51.488;0.152;2022-08-23T06:21:50;19.60;99.90
29731;DHT22;16639;51.488;0.152;2022-08-23T06:24:18;19.60;99.90
29731;DHT22;16639;51.488;0.152;2022-08-23T06:26:46;19.70;99.90
29731;DHT22;16639;51.488;0.152;2022-08-23T06:29:15;19.70;99.90
29731;DHT22;16639;51.488;0.152;2022-08-23T06:31:44;19.60;99.90
29731;DHT22;16639;51.488;0.152;2022-08-23T06:36:51;19.70;99.90
29731;DHT22;16639;51.488;0.152;2022-08-23T06:39:21;19.80;99.90
29731;DHT22;16639;51.488;0.152;2022-08-23T06:41:49;19.80;99.90
29731;DHT22;16639;51.488;0.152;2022-08-23T06:44:18;19.80;99.90
29731;DHT22;16639;51.488;0.152;2022-08-23T06:46:46;19.80;99.90
29731;DHT22;16639;51.488;0.152;2022-08-23T06:49:15;19.80;99.90
29731;DHT22;16639;51.488;0.152;2022-08-23T06:51:43;19.80;99.90
29731;DHT22;16639;51.488;0.152;2022-08-23T06:54:13;19.90;99.90
29731;DHT22;16639;51.488;0.152;2022-08-23T06:56:41;19.90;99.90
29731;DHT22;16639;51.488;0.152;2022-08-23T06:59:08;19.90;99.90
29731;DHT22;16639;51.488;0.152;2022-08-23T07:01:38;20.30;99.90
29731;DHT22;16639;51.488;0.152;2022-08-23T07:04:13;19.90;99.90
29731;DHT22;16639;51.488;0.152;2022-08-23T07:06:41;19.90;99.90
29731;DHT22;16639;51.488;0.152;2022-08-23T07:09:08;19.90;99.90
29731;DHT22;16639;51.488;0.152;2022-08-23T07:11:35;19.90;99.90
29731;DHT22;16639;51.488;0.152;2022-08-23T07:14:04;19.80;99.90
29731;DHT22;16639;51.488;0.152;2022-08-23T07:16:35;19.90;99.90
29731;DHT22;16639;51.488;0.152;2022-08-23T07:19:04;19.90;99.90
29731;DHT22;16639;51.488;0.152;2022-08-23T07:21:31;20.00;99.90
29731;DHT22;16639;51.488;0.152;2022-08-23T07:23:59;20.00;99.90
29731;DHT22;16639;51.488;0.152;2022-08-23T07:26:27;20.10;99.90
29731;DHT22;16639;51.488;0.152;2022-08-23T07:28:55;20.20;99.90
29731;DHT22;16639;51.488;0.152;2022-08-23T07:31:24;20.30;99.90
29731;DHT22;16639;51.488;0.152;2022-08-23T07:33:53;21.70;99.90
29731;DHT22;16639;51.488;0.152;2022-08-23T07:36:26;20.30;99.90
29731;DHT22;16639;51.488;0.152;2022-08-23T07:38:55;20.30;99.90
29731;DHT22;16639;51.488;0.152;2022-08-23T07:41:25;20.30;99.90
29731;DHT22;16639;51.488;0.152;2022-08-23T07:43:59;20.30;99.90
29731;DHT22;16639;51.488;0.152;2022-08-23T07:46:29;20.30;99.90
29731;DHT22;16639;51.488;0.152;2022-08-23T07:48:58;20.30;99.90
29731;DHT22;16639;51.488;0.152;2022-08-23T07:51:27;20.30;99.90
29731;DHT22;16639;51.488;0.152;2022-08-23T07:53:54;20.30;99.90
29731;DHT22;16639;51.488;0.152;2022-08-23T07:56:22;20.30;99.90
29731;DHT22;16639;51.488;0.152;2022-08-23T07:58:49;20.30;99.90
29731;DHT22;16639;51.488;0.152;2022-08-23T08:01:17;20.40;99.90
29731;DHT22;16639;51.488;0.152;2022-08-23T08:03:49;20.50;99.90
29731;DHT22;16639;51.488;0.152;2022-08-23T08:06:19;20.60;99.90
29731;DHT22;16639;51.488;0.152;2022-08-23T08:08:48;20.60;99.90
29731;DHT22;16639;51.488;0.152;2022-08-23T08:11:16;20.60;99.90
29731;DHT22;16639;51.488;0.152;2022-08-23T08:13:46;20.60;99.90
29731;DHT22;16639;51.488;0.152;2022-08-23T08:16:28;20.70;99.90
29731;DHT22;16639;51.488;0.152;2022-08-23T08:18:57;20.80;99.90
29731;DHT22;16639;51.488;0.152;2022-08-23T08:21:25;20.80;99.90
29731;DHT22;16639;51.488;0.152;2022-08-23T08:23:53;20.80;99.90
29731;DHT22;16639;51.488;0.152;2022-08-23T08:26:21;20.80;99.90
29731;DHT22;16639;51.488;0.152;2022-08-23T08:28:49;20.80;99.90
29731;DHT22;16639;51.488;0.152;2022-08-23T08:31:17;20.90;99.90
29731;DHT22;16639;51.488;0.152;2022-08-23T08:33:44;21.00;99.90
29731;DHT22;16639;51.488;0.152;2022-08-23T08:38:54;21.20;99.90
29731;DHT22;16639;51.488;0.152;2022-08-23T08:49:03;21.10;99.90
29731;DHT22;16639;51.488;0.152;2022-08-23T08:51:46;21.50;99.90
29731;DHT22;16639;51.488;0.152;2022-08-23T08:54:16;21.50;99.90
29731;DHT22;16639;51.488;0.152;2022-08-23T08:56:46;21.50;99.90
29731;DHT22;16639;51.488;0.152;2022-08-23T08:59:18;21.60;99.90
29731;DHT22;16639;51.488;0.152;2022-08-23T09:01:45;21.70;99.90
29731;DHT22;16639;51.488;0.152;2022-08-23T09:04:17;21.70;99.90
29731;DHT22;16639;51.488;0.152;2022-08-23T09:12:19;21.70;99.90
29731;DHT22;16639;51.488;0.152;2022-08-23T09:17:26;21.80;99.90
29731;DHT22;16639;51.488;0.152;2022-08-23T09:19:57;21.80;99.90
29731;DHT22;16639;51.488;0.152;2022-08-23T09:22:40;21.90;99.90
29731;DHT22;16639;51.488;0.152;2022-08-23T09:25:09;21.30;99.90
29731;DHT22;16639;51.488;0.152;2022-08-23T09:27:38;21.80;99.90
29731;DHT22;16639;51.488;0.152;2022-08-23T09:30:07;21.80;99.90
29731;DHT22;16639;51.488;0.152;2022-08-23T09:32:36;21.80;99.90
29731;DHT22;16639;51.488;0.152;2022-08-23T09:35:11;21.80;99.90
29731;DHT22;16639;51.488;0.152;2022-08-23T09:37:58;21.50;99.90
29731;DHT22;16639;51.488;0.152;2022-08-23T09:43:02;21.70;99.90
29731;DHT22;16639;51.488;0.152;2022-08-23T09:45:31;21.70;99.90
29731;DHT22;16639;51.488;0.152;2022-08-23T09:48:02;21.70;99.90
29731;DHT22;16639;51.488;0.152;2022-08-23T09:50:31;21.60;99.90
29731;DHT22;16639;51.488;0.152;2022-08-23T09:53:07;21.50;99.90
29731;DHT22;16639;51.488;0.152;2022-08-23T09:55:46;22.10;99.90
29731;DHT22;16639;51.488;0.152;2022-08-23T09:58:16;21.60;99.90
29731;DHT22;16639;51.488;0.152;2022-08-23T10:00:44;21.60;99.90
29731;DHT22;16639;51.488;0.152;2022-08-23T10:05:48;21.60;99.90
29731;DHT22;16639;51.488;0.152;2022-08-23T10:08:29;21.60;99.90
29731;DHT22;16639;51.488;0.152;2022-08-23T10:11:11;21.60;99.90
29731;DHT22;16639;51.488;0.152;2022-08-23T10:13:40;21.70;99.90
29731;DHT22;16639;51.488;0.152;2022-08-23T10:16:14;21.10;99.90
29731;DHT22;16639;51.488;0.152;2022-08-23T10:23:57;22.20;99.90
29731;DHT22;16639;51.488;0.152;2022-08-23T10:26:31;22.40;99.90
29731;DHT22;16639;51.488;0.152;2022-08-23T10:37:04;22.70;99.90
29731;DHT22;16639;51.488;0.152;2022-08-23T10:39:35;22.80;99.90
29731;DHT22;16639;51.488;0.152;2022-08-23T10:42:07;22.80;99.90
29731;DHT22;16639;51.488;0.152;2022-08-23T10:49:40;23.10;99.90
29731;DHT22;16639;51.488;0.152;2022-08-23T10:52:09;23.10;99.90
29731;DHT22;16639;51.488;0.152;2022-08-23T10:54:44;23.10;99.90
29731;DHT22;16639;51.488;0.152;2022-08-23T10:57:16;23.10;99.90
29731;DHT22;16639;51.488;0.152;2022-08-23T10:59:46;23.20;99.90
29731;DHT22;16639;51.488;0.152;2022-08-23T11:02:23;23.10;99.90
29731;DHT22;16639;51.488;0.152;2022-08-23T11:05:02;23.00;99.90
29731;DHT22;16639;51.488;0.152;2022-08-23T11:18:33;23.00;99.90
29731;DHT22;16639;51.488;0.152;2022-08-23T11:21:01;23.10;99.90
29731;DHT22;16639;51.488;0.152;2022-08-23T11:23:39;23.10;99.90
29731;DHT22;16639;51.488;0.152;2022-08-23T11:26:08;23.10;99.90
29731;DHT22;16639;51.488;0.152;2022-08-23T11:28:42;22.00;99.90
29731;DHT22;16639;51.488;0.152;2022-08-23T11:46:31;23.10;99.90
29731;DHT22;16639;51.488;0.152;2022-08-23T12:01:58;23.30;99.90
29731;DHT22;16639;51.488;0.152;2022-08-23T12:04:27;23.40;99.90
29731;DHT22;16639;51.488;0.152;2022-08-23T12:06:57;23.50;99.90
29731;DHT22;16639;51.488;0.152;2022-08-23T12:17:01;23.70;99.90
29731;DHT22;16639;51.488;0.152;2022-08-23T12:19:34;23.70;99.90
29731;DHT22;16639;51.488;0.152;2022-08-23T12:22:13;23.70;99.90
29731;DHT22;16639;51.488;0.152;2022-08-23T12:30:00;23.80;99.90
29731;DHT22;16639;51.488;0.152;2022-08-23T12:32:32;23.80;99.90
29731;DHT22;16639;51.488;0.152;2022-08-23T12:37:38;23.90;99.90
29731;DHT22;16639;51.488;0.152;2022-08-23T12:40:07;24.00;99.90
29731;DHT22;16639;51.488;0.152;2022-08-23T12:42:37;24.10;99.90
29731;DHT22;16639;51.488;0.152;2022-08-23T12:45:16;24.10;99.90
29731;DHT22;16639;51.488;0.152;2022-08-23T12:47:46;24.20;99.90
29731;DHT22;16639;51.488;0.152;2022-08-23T12:50:24;24.20;99.90
29731;DHT22;16639;51.488;0.152;2022-08-23T12:53:00;24.20;99.90
29731;DHT22;16639;51.488;0.152;2022-08-23T12:55:31;24.20;99.90
29731;DHT22;16639;51.488;0.152;2022-08-23T12:57:58;24.10;99.90
29731;DHT22;16639;51.488;0.152;2022-08-23T13:00:30;24.10;99.90
29731;DHT22;16639;51.488;0.152;2022-08-23T13:03:01;24.10;99.90
29731;DHT22;16639;51.488;0.152;2022-08-23T13:05:31;24.00;99.90
29731;DHT22;16639;51.488;0.152;2022-08-23T13:08:00;24.10;99.90
29731;DHT22;16639;51.488;0.152;2022-08-23T13:10:29;24.10;99.90
29731;DHT22;16639;51.488;0.152;2022-08-23T13:12:56;24.10;99.90
29731;DHT22;16639;51.488;0.152;2022-08-23T13:15:43;24.20;99.90
29731;DHT22;16639;51.488;0.152;2022-08-23T13:18:21;24.20;99.90
29731;DHT22;16639;51.488;0.152;2022-08-23T13:20:49;24.30;99.90
29731;DHT22;16639;51.488;0.152;2022-08-23T13:23:36;24.20;99.90
29731;DHT22;16639;51.488;0.152;2022-08-23T13:36:57;24.20;99.90
29731;DHT22;16639;51.488;0.152;2022-08-23T13:39:25;23.80;99.90
29731;DHT22;16639;51.488;0.152;2022-08-23T13:41:52;24.30;99.90
29731;DHT22;16639;51.488;0.152;2022-08-23T13:44:19;24.40;99.90
29731;DHT22;16639;51.488;0.152;2022-08-23T13:46:48;24.40;99.90
29731;DHT22;16639;51.488;0.152;2022-08-23T13:49:19;24.40;99.90
29731;DHT22;16639;51.488;0.152;2022-08-23T13:54:46;24.40;99.90
29731;DHT22;16639;51.488;0.152;2022-08-23T13:57:18;24.30;99.90
29731;DHT22;16639;51.488;0.152;2022-08-23T13:59:50;24.30;99.90
29731;DHT22;16639;51.488;0.152;2022-08-23T14:02:19;24.90;99.90
29731;DHT22;16639;51.488;0.152;2022-08-23T14:04:46;24.30;99.90
29731;DHT22;16639;51.488;0.152;2022-08-23T14:07:14;24.30;99.90
29731;DHT22;16639;51.488;0.152;2022-08-23T14:09:41;24.40;99.90
29731;DHT22;16639;51.488;0.152;2022-08-23T14:12:13;24.40;99.90
29731;DHT22;16639;51.488;0.152;2022-08-23T14:14:41;24.40;99.90
29731;DHT22;16639;51.488;0.152;2022-08-23T14:17:09;24.40;99.90
29731;DHT22;16639;51.488;0.152;2022-08-23T14:19:39;24.40;99.90
29731;DHT22;16639;51.488;0.152;2022-08-23T14:22:26;24.50;99.90
29731;DHT22;16639;51.488;0.152;2022-08-23T14:24:53;24.50;99.90
29731;DHT22;16639;51.488;0.152;2022-08-23T14:27:20;24.50;99.90
29731;DHT22;16639;51.488;0.152;2022-08-23T14:29:47;24.50;99.90
29731;DHT22;16639;51.488;0.152;2022-08-23T14:32:14;24.90;99.90
29731;DHT22;16639;51.488;0.152;2022-08-23T14:34:42;24.60;99.90
29731;DHT22;16639;51.488;0.152;2022-08-23T14:37:09;24.60;99.90
29731;DHT22;16639;51.488;0.152;2022-08-23T14:39:56;24.60;99.90
29731;DHT22;16639;51.488;0.152;2022-08-23T14:42:24;24.70;99.90
29731;DHT22;16639;51.488;0.152;2022-08-23T14:44:51;24.60;99.90
29731;DHT22;16639;51.488;0.152;2022-08-23T14:47:18;24.60;99.90
29731;DHT22;16639;51.488;0.152;2022-08-23T14:49:45;24.50;99.90
29731;DHT22;16639;51.488;0.152;2022-08-23T14:52:17;24.50;99.90
29731;DHT22;16639;51.488;0.152;2022-08-23T14:54:44;24.20;99.90
29731;DHT22;16639;51.488;0.152;2022-08-23T14:57:12;24.50;99.90
29731;DHT22;16639;51.488;0.152;2022-08-23T14:59:39;24.40;99.90
29731;DHT22;16639;51.488;0.152;2022-08-23T15:02:07;24.30;99.90
29731;DHT22;16639;51.488;0.152;2022-08-23T15:04:37;24.50;99.90
29731;DHT22;16639;51.488;0.152;2022-08-23T15:07:04;24.50;99.90
29731;DHT22;16639;51.488;0.152;2022-08-23T15:09:47;24.50;99.90
29731;DHT22;16639;51.488;0.152;2022-08-23T15:12:15;24.50;99.90
29731;DHT22;16639;51.488;0.152;2022-08-23T15:15:03;24.50;99.90
29731;DHT22;16639;51.488;0.152;2022-08-23T15:17:34;24.40;99.90
29731;DHT22;16639;51.488;0.152;2022-08-23T15:20:01;24.40;99.90
29731;DHT22;16639;51.488;0.152;2022-08-23T15:22:28;24.40;99.90
29731;DHT22;16639;51.488;0.152;2022-08-23T15:24:56;24.40;99.90
29731;DHT22;16639;51.488;0.152;2022-08-23T15:27:23;24.30;99.90
29731;DHT22;16639;51.488;0.152;2022-08-23T15:29:51;24.30;99.90
29731;DHT22;16639;51.488;0.152;2022-08-23T15:32:18;24.20;99.90
29731;DHT22;16639;51.488;0.152;2022-08-23T15:34:51;24.20;99.90
29731;DHT22;16639;51.488;0.152;2022-08-23T15:37:22;24.20;99.90
29731;DHT22;16639;51.488;0.152;2022-08-23T15:39:49;24.20;99.90
29731;DHT22;16639;51.488;0.152;2022-08-23T15:42:16;24.20;99.90
29731;DHT22;16639;51.488;0.152;2022-08-23T15:44:46;24.20;99.90
29731;DHT22;16639;51.488;0.152;2022-08-23T15:47:18;24.20;99.90
29731;DHT22;16639;51.488;0.152;2022-08-23T15:49:47;24.20;99.90
29731;DHT22;16639;51.488;0.152;2022-08-23T15:52:14;24.20;99.90
29731;DHT22;16639;51.488;0.152;2022-08-23T15:54:42;24.20;99.90
29731;DHT22;16639;51.488;0.152;2022-08-23T15:57:12;24.20;99.90
29731;DHT22;16639;51.488;0.152;2022-08-23T15:59:40;24.20;99.90
29731;DHT22;16639;51.488;0.152;2022-08-23T16:02:07;24.20;99.90
29731;DHT22;16639;51.488;0.152;2022-08-23T16:04:34;24.20;99.90
29731;DHT22;16639;51.488;0.152;2022-08-23T16:07:03;24.30;99.90
29731;DHT22;16639;51.488;0.152;2022-08-23T16:09:30;24.30;99.90
29731;DHT22;16639;51.488;0.152;2022-08-23T16:12:00;24.30;99.90
29731;DHT22;16639;51.488;0.152;2022-08-23T16:14:32;24.30;99.90
29731;DHT22;16639;51.488;0.152;2022-08-23T16:17:00;24.30;99.90
29731;DHT22;16639;51.488;0.152;2022-08-23T16:19:27;24.30;99.90
29731;DHT22;16639;51.488;0.152;2022-08-23T16:21:55;24.30;99.90
29731;DHT22;16639;51.488;0.152;2022-08-23T16:24:22;24.30;99.90
29731;DHT22;16639;51.488;0.152;2022-08-23T16:26:50;23.90;99.90
29731;DHT22;16639;51.488;0.152;2022-08-23T16:29:18;24.40;99.90
29731;DHT22;16639;51.488;0.152;2022-08-23T16:31:45;24.40;99.90
29731;DHT22;16639;51.488;0.152;2022-08-23T16:34:14;24.40;99.90
29731;DHT22;16639;51.488;0.152;2022-08-23T16:36:43;24.50;99.90
29731;DHT22;16639;51.488;0.152;2022-08-23T16:39:11;24.50;99.90
29731;DHT22;16639;51.488;0.152;2022-08-23T16:41:38;24.50;99.90
29731;DHT22;16639;51.488;0.152;2022-08-23T16:44:06;24.40;99.90
29731;DHT22;16639;51.488;0.152;2022-08-23T16:46:34;24.40;99.90
29731;DHT22;16639;51.488;0.152;2022-08-23T16:49:01;24.40;99.90
29731;DHT22;16639;51.488;0.152;2022-08-23T16:51:28;24.40;99.90
29731;DHT22;16639;51.488;0.152;2022-08-23T16:53:55;24.40;99.90
29731;DHT22;16639;51.488;0.152;2022-08-23T16:56:32;24.40;99.90
29731;DHT22;16639;51.488;0.152;2022-08-23T16:59:00;24.40;99.90
29731;DHT22;16639;51.488;0.152;2022-08-23T17:01:28;24.40;99.90
29731;DHT22;16639;51.488;0.152;2022-08-23T17:03:55;24.40;99.90
29731;DHT22;16639;51.488;0.152;2022-08-23T17:06:22;24.30;99.90
29731;DHT22;16639;51.488;0.152;2022-08-23T17:08:49;25.00;99.90
29731;DHT22;16639;51.488;0.152;2022-08-23T17:11:17;24.30;99.90
29731;DHT22;16639;51.488;0.152;2022-08-23T17:13:45;24.20;99.90
29731;DHT22;16639;51.488;0.152;2022-08-23T17:16:12;24.20;99.90
29731;DHT22;16639;51.488;0.152;2022-08-23T17:18:39;24.10;99.90
29731;DHT22;16639;51.488;0.152;2022-08-23T17:21:06;24.00;99.90
29731;DHT22;16639;51.488;0.152;2022-08-23T17:23:35;24.00;99.90
29731;DHT22;16639;51.488;0.152;2022-08-23T17:26:08;24.00;99.90
29731;DHT22;16639;51.488;0.152;2022-08-23T17:28:35;23.90;99.90
29731;DHT22;16639;51.488;0.152;2022-08-23T17:31:02;23.80;99.90
29731;DHT22;16639;51.488;0.152;2022-08-23T17:33:29;23.80;99.90
29731;DHT22;16639;51.488;0.152;2022-08-23T17:35:57;23.80;99.90
29731;DHT22;16639;51.488;0.152;2022-08-23T17:38:24;24.10;99.90
29731;DHT22;16639;51.488;0.152;2022-08-23T17:40:51;23.80;99.90
29731;DHT22;16639;51.488;0.152;2022-08-23T17:43:18;23.80;99.90
29731;DHT22;16639;51.488;0.152;2022-08-23T17:45:47;23.80;99.90